CMA CGM Herodote — MFEP — position and weather

sailwx.info

Track history (hours):
 
Tides and Currents Weather Stations Pressure Air Temp Water Temp Dewpoint Dewpoint Depression Visibility Wind Speed Wind Dir Waves Ship Positions

CMA CGM Herodote

Last reported at 2014-Aug-31 06:28 UTC. Time now 2014-Sep-03 02:29 UTC.
Position N 36°58' W 029°47'.

Length 170 m; draft 9.5 m.

Type: Ship (hazmat cat A). MMSI: 235051085.

Date/timePositionNaut miles runAvg speedWind from/ knotsBaromVisibWave heightAir tempDewpointWater temp
2014-Aug-31 06:28N 36°58' W 029°47'2018.8
2014-Aug-31 05:25N 37°09' W 029°26'1618.9
2014-Aug-31 04:33N 37°18' W 029°10'1918.8
2014-Aug-31 03:33N 37°29' W 028°50'1918.9
2014-Aug-31 02:33N 37°39' W 028°30'1919.3
2014-Aug-31 01:33N 37°50' W 028°10'1918.8
2014-Aug-31 00:33N 37°60' W 027°49'1918.8
2014-Aug-30 23:33N 38°10' W 027°29'1919.1
2014-Aug-30 22:33N 38°20' W 027°09'1918.6
2014-Aug-30 21:33N 38°30' W 026°49'1918.7
2014-Aug-30 20:33N 38°40' W 026°29'1818.5
2014-Aug-30 19:34N 38°50' W 026°09'1817.9
2014-Aug-30 18:33N 38°60' W 025°49'1918.4
2014-Aug-30 17:33N 39°09' W 025°29'1818.5
2014-Aug-30 16:33N 39°19' W 025°09'1919.1
2014-Aug-30 15:33N 39°29' W 024°48'3919.4
2014-Aug-30 13:33N 39°50' W 024°05'  
2014-Aug-27 21:14N 49°41' W 000°40'1217.3
2014-Aug-27 20:33N 49°36' W 000°24'1514.8
2014-Aug-27 19:33N 49°31' W 000°02'8 8.2
2014-Aug-27 18:33N 49°29' E 000°10'0 0.0
2014-Aug-27 17:33N 49°29' E 000°10'0 0.0
2014-Aug-27 16:30N 49°29' E 000°10'0 0.0
2014-Aug-27 15:30N 49°29' E 000°10'0 0.0
2014-Aug-27 14:33N 49°29' E 000°10'0 0.0
2014-Aug-27 13:33N 49°29' E 000°10'0 0.0
2014-Aug-27 12:33N 49°29' E 000°10'0 0.0
2014-Aug-27 11:33N 49°29' E 000°10'0 0.0
2014-Aug-27 10:33N 49°29' E 000°10'0 0.0
2014-Aug-27 09:33N 49°29' E 000°10'0 0.0
2014-Aug-27 08:33N 49°29' E 000°10'0 0.0
2014-Aug-27 07:33N 49°29' E 000°10'0 0.0
2014-Aug-27 06:33N 49°29' E 000°10'0 0.0
2014-Aug-27 05:33N 49°29' E 000°10'0 0.0
2014-Aug-27 04:33N 49°29' E 000°10'0 0.0
2014-Aug-27 03:33N 49°29' E 000°10'0 0.0
2014-Aug-27 02:33N 49°29' E 000°10'0 0.0
2014-Aug-27 01:30N 49°29' E 000°10'0 0.0
2014-Aug-27 00:33N 49°29' E 000°10'0 0.0
2014-Aug-26 23:33N 49°29' E 000°10'0 0.0
2014-Aug-26 22:33N 49°29' E 000°10'0 0.0
2014-Aug-26 21:33N 49°29' E 000°10'0 0.0
2014-Aug-26 20:30N 49°29' E 000°10'0 0.0
2014-Aug-26 19:33N 49°29' E 000°10'4 3.8
2014-Aug-26 18:34N 49°29' E 000°04'9 8.7
2014-Aug-26 17:33N 49°33' W 000°08'2 1.5
2014-Aug-26 16:31N 49°34' W 000°08'0 0.0
2014-Aug-26 15:31N 49°34' W 000°08'6 5.8
2014-Aug-26 14:33N 49°39' W 000°13'56 7.9
2014-Aug-26 07:31N 50°31' E 000°19'1010.0
2014-Aug-26 06:33N 50°35' E 000°32'1111.2
2014-Aug-26 05:33N 50°42' E 000°47'2411.0
2014-Aug-26 03:25N 50°57' E 001°15'1011.6
2014-Aug-26 02:32N 51°04' E 001°27'9 9.6
2014-Aug-26 01:33N 51°09' E 001°39'10 9.6
2014-Aug-26 00:33N 51°17' E 001°49'9 9.1
2014-Aug-25 23:33N 51°25' E 001°56'10 9.8
2014-Aug-25 22:33N 51°32' E 002°06'1111.3
2014-Aug-25 21:33N 51°41' E 002°19'4610.7
2014-Aug-25 17:15N 52°03' E 003°24'912.8
2014-Aug-25 16:33N 52°03' E 003°38'1111.2
2014-Aug-25 15:33N 52°02' E 003°56'1111.1
2014-Aug-25 14:33N 51°56' E 004°12'8 7.9
2014-Aug-25 13:33N 51°54' E 004°24'1 0.7
2014-Aug-25 12:31N 51°53' E 004°24'0 0.0
2014-Aug-25 11:31N 51°53' E 004°24'0 0.0
2014-Aug-25 10:19N 51°53' E 004°24'0 0.0
2014-Aug-25 09:31N 51°53' E 004°24'0 0.0
2014-Aug-25 08:31N 51°53' E 004°24'0 0.0
2014-Aug-25 07:28N 51°53' E 004°24'0 0.0
2014-Aug-25 06:28N 51°53' E 004°24'0 0.0
2014-Aug-25 05:31N 51°53' E 004°24'0 0.0
2014-Aug-25 04:28N 51°53' E 004°24'0 0.0
2014-Aug-25 03:31N 51°53' E 004°24'0 0.0
2014-Aug-25 02:31N 51°53' E 004°24'0 0.0
2014-Aug-25 01:31N 51°53' E 004°24'0 0.0
2014-Aug-25 00:31N 51°53' E 004°24'0 0.0
2014-Aug-24 23:31N 51°53' E 004°24'0 0.0
2014-Aug-24 22:31N 51°53' E 004°24'0 0.0
2014-Aug-24 21:31N 51°53' E 004°24'0 0.0
2014-Aug-24 20:31N 51°53' E 004°24'0 0.0
2014-Aug-24 19:31N 51°53' E 004°24'0 0.0
2014-Aug-24 18:28N 51°53' E 004°24'0 0.0
2014-Aug-24 17:31N 51°53' E 004°24'0 0.0
2014-Aug-24 16:31N 51°53' E 004°24'0 0.0
2014-Aug-24 15:31N 51°53' E 004°24'0 0.0
2014-Aug-24 14:31N 51°53' E 004°24'0 0.0
2014-Aug-24 13:28N 51°53' E 004°24'1 0.9
2014-Aug-24 12:34N 51°54' E 004°24'9 8.8
2014-Aug-24 11:33N 51°57' E 004°10'1010.3
2014-Aug-24 10:33N 51°60' E 003°54'9 9.4
2014-Aug-24 09:33N 51°58' E 003°39'3916.0
2014-Aug-24 07:09N 51°46' E 002°40'1717.3
2014-Aug-24 06:12N 51°34' E 002°23'1117.5
2014-Aug-24 05:34N 51°25' E 002°12'1717.1
2014-Aug-24 04:34N 51°11' E 001°56'1717.4
2014-Aug-24 03:34N 50°59' E 001°36'1817.4
2014-Aug-24 02:31N 50°43' E 001°24'2317.9
2014-Aug-24 01:15N 50°28' E 000°56'1318.0
2014-Aug-24 00:32N 50°24' E 000°37'85517.7
2014-Aug-22 00:12N 38°14' W 009°44'11617.4
2014-Aug-21 17:32N 36°34' W 008°28'2219.4
2014-Aug-21 16:25N 36°27' W 008°03'  
Track history (hours):
 
Tides and Currents Weather Stations Pressure Air Temp Water Temp Dewpoint Dewpoint Depression Visibility Wind Speed Wind Dir Waves Ship Positions

CMA CGM Herodote

Last reported at 2014-Aug-31 06:28 UTC. Time now 2014-Sep-03 02:29 UTC.
Position N 36°58' W 029°47'.

Length 170 m; draft 9.5 m.

Type: Ship (hazmat cat A). MMSI: 235051085.

Date/timePositionNaut miles runAvg speedWind from/ knotsBaromVisibWave heightAir tempDewpointWater temp
2014-Aug-31 06:28N 36°58' W 029°47'2018.8
2014-Aug-31 05:25N 37°09' W 029°26'1618.9
2014-Aug-31 04:33N 37°18' W 029°10'1918.8
2014-Aug-31 03:33N 37°29' W 028°50'1918.9
2014-Aug-31 02:33N 37°39' W 028°30'1919.3
2014-Aug-31 01:33N 37°50' W 028°10'1918.8
2014-Aug-31 00:33N 37°60' W 027°49'1918.8
2014-Aug-30 23:33N 38°10' W 027°29'1919.1
2014-Aug-30 22:33N 38°20' W 027°09'1918.6
2014-Aug-30 21:33N 38°30' W 026°49'1918.7
2014-Aug-30 20:33N 38°40' W 026°29'1818.5
2014-Aug-30 19:34N 38°50' W 026°09'1817.9
2014-Aug-30 18:33N 38°60' W 025°49'1918.4
2014-Aug-30 17:33N 39°09' W 025°29'1818.5
2014-Aug-30 16:33N 39°19' W 025°09'1919.1
2014-Aug-30 15:33N 39°29' W 024°48'3919.4
2014-Aug-30 13:33N 39°50' W 024°05'  
2014-Aug-27 21:14N 49°41' W 000°40'1217.3
2014-Aug-27 20:33N 49°36' W 000°24'1514.8
2014-Aug-27 19:33N 49°31' W 000°02'8 8.2
2014-Aug-27 18:33N 49°29' E 000°10'0 0.0
2014-Aug-27 17:33N 49°29' E 000°10'0 0.0
2014-Aug-27 16:30N 49°29' E 000°10'0 0.0
2014-Aug-27 15:30N 49°29' E 000°10'0 0.0
2014-Aug-27 14:33N 49°29' E 000°10'0 0.0
2014-Aug-27 13:33N 49°29' E 000°10'0 0.0
2014-Aug-27 12:33N 49°29' E 000°10'0 0.0
2014-Aug-27 11:33N 49°29' E 000°10'0 0.0
2014-Aug-27 10:33N 49°29' E 000°10'0 0.0
2014-Aug-27 09:33N 49°29' E 000°10'0 0.0
2014-Aug-27 08:33N 49°29' E 000°10'0 0.0
2014-Aug-27 07:33N 49°29' E 000°10'0 0.0
2014-Aug-27 06:33N 49°29' E 000°10'0 0.0
2014-Aug-27 05:33N 49°29' E 000°10'0 0.0
2014-Aug-27 04:33N 49°29' E 000°10'0 0.0
2014-Aug-27 03:33N 49°29' E 000°10'0 0.0
2014-Aug-27 02:33N 49°29' E 000°10'0 0.0
2014-Aug-27 01:30N 49°29' E 000°10'0 0.0
2014-Aug-27 00:33N 49°29' E 000°10'0 0.0
2014-Aug-26 23:33N 49°29' E 000°10'0 0.0
2014-Aug-26 22:33N 49°29' E 000°10'0 0.0
2014-Aug-26 21:33N 49°29' E 000°10'0 0.0
2014-Aug-26 20:30N 49°29' E 000°10'0 0.0
2014-Aug-26 19:33N 49°29' E 000°10'4 3.8
2014-Aug-26 18:34N 49°29' E 000°04'9 8.7
2014-Aug-26 17:33N 49°33' W 000°08'2 1.5
2014-Aug-26 16:31N 49°34' W 000°08'0 0.0
2014-Aug-26 15:31N 49°34' W 000°08'6 5.8
2014-Aug-26 14:33N 49°39' W 000°13'56 7.9
2014-Aug-26 07:31N 50°31' E 000°19'1010.0
2014-Aug-26 06:33N 50°35' E 000°32'1111.2
2014-Aug-26 05:33N 50°42' E 000°47'2411.0
2014-Aug-26 03:25N 50°57' E 001°15'1011.6
2014-Aug-26 02:32N 51°04' E 001°27'9 9.6
2014-Aug-26 01:33N 51°09' E 001°39'10 9.6
2014-Aug-26 00:33N 51°17' E 001°49'9 9.1
2014-Aug-25 23:33N 51°25' E 001°56'10 9.8
2014-Aug-25 22:33N 51°32' E 002°06'1111.3
2014-Aug-25 21:33N 51°41' E 002°19'4610.7
2014-Aug-25 17:15N 52°03' E 003°24'912.8
2014-Aug-25 16:33N 52°03' E 003°38'1111.2
2014-Aug-25 15:33N 52°02' E 003°56'1111.1
2014-Aug-25 14:33N 51°56' E 004°12'8 7.9
2014-Aug-25 13:33N 51°54' E 004°24'1 0.7
2014-Aug-25 12:31N 51°53' E 004°24'0 0.0
2014-Aug-25 11:31N 51°53' E 004°24'0 0.0
2014-Aug-25 10:19N 51°53' E 004°24'0 0.0
2014-Aug-25 09:31N 51°53' E 004°24'0 0.0
2014-Aug-25 08:31N 51°53' E 004°24'0 0.0
2014-Aug-25 07:28N 51°53' E 004°24'0 0.0
2014-Aug-25 06:28N 51°53' E 004°24'0 0.0
2014-Aug-25 05:31N 51°53' E 004°24'0 0.0
2014-Aug-25 04:28N 51°53' E 004°24'0 0.0
2014-Aug-25 03:31N 51°53' E 004°24'0 0.0
2014-Aug-25 02:31N 51°53' E 004°24'0 0.0
2014-Aug-25 01:31N 51°53' E 004°24'0 0.0
2014-Aug-25 00:31N 51°53' E 004°24'0 0.0
2014-Aug-24 23:31N 51°53' E 004°24'0 0.0
2014-Aug-24 22:31N 51°53' E 004°24'0 0.0
2014-Aug-24 21:31N 51°53' E 004°24'0 0.0
2014-Aug-24 20:31N 51°53' E 004°24'0 0.0
2014-Aug-24 19:31N 51°53' E 004°24'0 0.0
2014-Aug-24 18:28N 51°53' E 004°24'0 0.0
2014-Aug-24 17:31N 51°53' E 004°24'0 0.0
2014-Aug-24 16:31N 51°53' E 004°24'0 0.0
2014-Aug-24 15:31N 51°53' E 004°24'0 0.0
2014-Aug-24 14:31N 51°53' E 004°24'0 0.0
2014-Aug-24 13:28N 51°53' E 004°24'1 0.9
2014-Aug-24 12:34N 51°54' E 004°24'9 8.8
2014-Aug-24 11:33N 51°57' E 004°10'1010.3
2014-Aug-24 10:33N 51°60' E 003°54'9 9.4
2014-Aug-24 09:33N 51°58' E 003°39'3916.0
2014-Aug-24 07:09N 51°46' E 002°40'1717.3
2014-Aug-24 06:12N 51°34' E 002°23'1117.5
2014-Aug-24 05:34N 51°25' E 002°12'1717.1
2014-Aug-24 04:34N 51°11' E 001°56'1717.4
2014-Aug-24 03:34N 50°59' E 001°36'1817.4
2014-Aug-24 02:31N 50°43' E 001°24'2317.9
2014-Aug-24 01:15N 50°28' E 000°56'1318.0
2014-Aug-24 00:32N 50°24' E 000°37'85517.7
2014-Aug-22 00:12N 38°14' W 009°44'11617.4
2014-Aug-21 17:32N 36°34' W 008°28'2219.4
2014-Aug-21 16:25N 36°27' W 008°03'  

Dump ship's entire track history